createdAt,value
2023-02-27T00:00:15.223Z,64.71
2023-02-27T00:02:47.595Z,63.90
2023-02-27T00:05:15.126Z,63.89
2023-02-27T00:07:42.672Z,63.40
2023-02-27T00:10:11.246Z,63.70
2023-02-27T00:12:39.182Z,63.40
2023-02-27T00:15:07.492Z,63.58
2023-02-27T00:17:34.774Z,62.33
2023-02-27T00:20:01.724Z,62.36
2023-02-27T00:22:28.946Z,62.68
2023-02-27T00:24:56.073Z,62.76
2023-02-27T00:27:23.401Z,62.47
2023-02-27T00:29:51.380Z,62.03
2023-02-27T00:32:19.157Z,62.96
2023-02-27T00:34:47.403Z,62.43
2023-02-27T00:37:14.419Z,63.24
2023-02-27T00:39:41.832Z,62.68
2023-02-27T00:42:09.358Z,62.23
2023-02-27T00:44:36.670Z,61.96
2023-02-27T00:47:03.899Z,62.59
2023-02-27T00:49:32.648Z,62.28
2023-02-27T00:52:00.261Z,62.88
2023-02-27T00:54:27.405Z,61.87
2023-02-27T00:56:54.742Z,62.53
2023-02-27T00:59:22.211Z,62.04
2023-02-27T01:01:49.464Z,62.05
2023-02-27T01:04:16.568Z,61.11
2023-02-27T01:06:43.643Z,60.66
2023-02-27T01:09:11.153Z,61.16
2023-02-27T01:11:38.230Z,62.36
2023-02-27T01:14:05.403Z,62.36
2023-02-27T01:16:32.612Z,62.60
2023-02-27T01:19:00.042Z,62.82
2023-02-27T01:21:27.223Z,62.65
2023-02-27T01:23:54.429Z,63.07
2023-02-27T01:26:21.377Z,62.67
2023-02-27T01:28:48.624Z,63.33
2023-02-27T01:31:15.885Z,62.54
2023-02-27T01:33:43.030Z,62.68
2023-02-27T01:36:10.224Z,63.22
2023-02-27T01:38:37.523Z,62.33
2023-02-27T01:41:07.350Z,62.30
2023-02-27T01:43:35.284Z,63.10
2023-02-27T01:46:02.245Z,63.60
2023-02-27T01:48:29.172Z,63.46
2023-02-27T01:51:01.758Z,63.19
2023-02-27T01:53:30.766Z,64.09
2023-02-27T01:56:01.323Z,64.71
2023-02-27T01:58:29.782Z,64.85
2023-02-27T02:00:57.249Z,64.45
2023-02-27T02:03:38.067Z,64.85
2023-02-27T02:06:07.423Z,65.27
2023-02-27T02:08:41.386Z,66.01
2023-02-27T02:11:09.317Z,64.46
2023-02-27T02:13:37.572Z,65.71
2023-02-27T02:16:32.092Z,66.45
2023-02-27T02:19:23.903Z,66.65
2023-02-27T02:22:38.627Z,66.93
2023-02-27T02:25:39.926Z,66.77
2023-02-27T02:28:44.562Z,66.40
2023-02-27T02:31:11.469Z,67.66
2023-02-27T02:34:05.446Z,66.99
2023-02-27T02:37:03.194Z,67.53
2023-02-27T02:39:49.153Z,68.89
2023-02-27T02:42:28.537Z,69.58
2023-02-27T02:45:15.740Z,70.16
2023-02-27T02:47:52.033Z,70.25
2023-02-27T02:50:22.743Z,69.11
2023-02-27T02:53:19.104Z,69.66
2023-02-27T02:56:24.987Z,69.82
2023-02-27T02:59:08.132Z,69.94
2023-02-27T03:01:54.403Z,71.03
2023-02-27T03:04:29.162Z,70.78
2023-02-27T03:07:13.615Z,71.85
2023-02-27T03:09:45.682Z,71.89
2023-02-27T03:12:14.764Z,71.46
2023-02-27T03:14:47.885Z,70.94
2023-02-27T03:17:35.084Z,71.97
2023-02-27T03:20:09.357Z,72.43
2023-02-27T03:22:39.194Z,72.38
2023-02-27T03:25:08.525Z,73.38
2023-02-27T03:27:45.289Z,73.06
2023-02-27T03:30:22.936Z,73.78
2023-02-27T03:33:01.863Z,73.98
2023-02-27T03:35:49.477Z,74.33
2023-02-27T03:38:23.687Z,74.44
2023-02-27T03:41:22.896Z,74.19
2023-02-27T03:44:28.685Z,75.38
2023-02-27T03:46:56.145Z,75.08
2023-02-27T03:49:23.492Z,75.61
2023-02-27T03:51:50.647Z,76.10
2023-02-27T03:54:21.776Z,76.55
2023-02-27T03:57:04.996Z,76.26
2023-02-27T03:59:32.944Z,76.25
2023-02-27T04:02:01.266Z,76.18
2023-02-27T04:04:32.376Z,76.82
2023-02-27T04:07:37.730Z,77.73
2023-02-27T04:10:28.425Z,76.44
2023-02-27T04:13:01.220Z,77.57
2023-02-27T04:15:40.816Z,77.28
2023-02-27T04:18:10.689Z,78.28
2023-02-27T04:21:16.319Z,78.25
2023-02-27T04:24:11.875Z,78.32
2023-02-27T04:27:02.927Z,77.15
2023-02-27T04:29:54.802Z,78.48
2023-02-27T04:32:25.823Z,78.59
2023-02-27T04:34:57.724Z,79.05
2023-02-27T04:37:34.102Z,79.11
2023-02-27T04:40:06.234Z,78.87
2023-02-27T04:42:36.258Z,79.26
2023-02-27T04:45:06.404Z,78.37
2023-02-27T04:47:47.344Z,79.42
2023-02-27T04:50:19.827Z,78.55
2023-02-27T04:52:53.685Z,78.70
2023-02-27T04:55:24.698Z,78.34
2023-02-27T04:57:57.621Z,79.26
2023-02-27T05:00:26.130Z,78.92
2023-02-27T05:03:16.337Z,79.41
2023-02-27T05:05:44.306Z,79.15
2023-02-27T05:08:21.746Z,79.10
2023-02-27T05:10:59.330Z,79.48
2023-02-27T05:13:36.533Z,78.90
2023-02-27T05:16:13.753Z,78.92
2023-02-27T05:18:40.812Z,79.13
2023-02-27T05:21:13.760Z,79.29
2023-02-27T05:23:40.785Z,79.50
2023-02-27T05:26:17.305Z,79.66
2023-02-27T05:28:50.511Z,79.96
2023-02-27T05:31:44.085Z,79.24
2023-02-27T05:34:18.115Z,79.14
2023-02-27T05:36:52.555Z,78.58
2023-02-27T05:39:21.784Z,78.81
2023-02-27T05:41:52.607Z,78.46
2023-02-27T05:44:23.378Z,79.45
2023-02-27T05:46:56.757Z,78.81
2023-02-27T05:49:46.057Z,78.62
2023-02-27T05:52:16.928Z,78.60
2023-02-27T05:54:50.643Z,78.71
2023-02-27T05:57:23.196Z,78.54
2023-02-27T06:00:20.230Z,78.86
2023-02-27T06:02:47.301Z,79.23
2023-02-27T06:05:16.761Z,79.94
2023-02-27T06:07:43.771Z,80.14
2023-02-27T06:10:15.803Z,80.49
2023-02-27T06:12:42.982Z,80.43
2023-02-27T06:15:10.410Z,80.04
2023-02-27T06:17:38.134Z,79.66
2023-02-27T06:20:07.021Z,79.04
2023-02-27T06:22:34.532Z,78.72
2023-02-27T06:25:02.164Z,78.85
2023-02-27T06:27:29.245Z,78.28
2023-02-27T06:29:57.762Z,77.71
2023-02-27T06:32:26.035Z,77.58
2023-02-27T06:34:53.820Z,77.93
2023-02-27T06:37:21.999Z,77.70
2023-02-27T06:39:49.241Z,77.03
2023-02-27T06:42:17.048Z,77.62
2023-02-27T06:44:44.770Z,76.57
2023-02-27T06:47:11.948Z,76.99
2023-02-27T06:49:39.214Z,76.37
2023-02-27T06:52:06.516Z,75.99
2023-02-27T06:54:34.263Z,76.24
2023-02-27T06:57:01.548Z,76.59
2023-02-27T06:59:28.426Z,76.31
2023-02-27T07:01:55.597Z,75.90
2023-02-27T07:04:22.785Z,76.18
2023-02-27T07:07:34.420Z,75.13
2023-02-27T07:09:37.509Z,75.49
2023-02-27T07:12:05.248Z,75.81
2023-02-27T07:14:32.519Z,76.14
2023-02-27T07:17:03.387Z,76.12
2023-02-27T07:19:35.873Z,75.48
2023-02-27T07:22:03.579Z,75.20
2023-02-27T07:24:30.347Z,74.92
2023-02-27T07:26:57.347Z,73.21
2023-02-27T07:29:24.208Z,72.55
2023-02-27T07:31:51.572Z,71.89
2023-02-27T07:34:18.644Z,72.36
2023-02-27T07:36:46.022Z,71.38
2023-02-27T07:39:13.619Z,70.91
2023-02-27T07:41:40.525Z,70.44
2023-02-27T07:44:08.880Z,70.24
2023-02-27T07:46:36.208Z,70.59
2023-02-27T07:49:03.119Z,70.58
2023-02-27T07:51:30.034Z,71.06
2023-02-27T07:53:58.656Z,70.92
2023-02-27T07:56:27.009Z,71.19
2023-02-27T07:58:53.909Z,70.35
2023-02-27T08:01:20.952Z,70.67
2023-02-27T08:03:48.120Z,70.50
2023-02-27T08:06:15.084Z,70.18
2023-02-27T08:08:42.358Z,69.86
2023-02-27T08:11:09.533Z,69.48
2023-02-27T08:16:23.841Z,69.09
2023-02-27T08:18:50.583Z,67.78
2023-02-27T08:21:17.532Z,66.54
2023-02-27T08:23:44.362Z,65.78
2023-02-27T08:26:11.566Z,65.18
2023-02-27T08:28:38.326Z,64.54
2023-02-27T08:31:07.016Z,63.78
2023-02-27T08:33:34.470Z,63.00
2023-02-27T08:36:01.492Z,64.72
2023-02-27T08:38:28.467Z,64.05
2023-02-27T08:40:55.787Z,63.37
2023-02-27T08:43:23.606Z,62.99
2023-02-27T08:45:51.631Z,64.15
2023-02-27T08:48:18.817Z,64.01
2023-02-27T08:50:46.632Z,64.11
2023-02-27T08:53:14.165Z,64.07
2023-02-27T08:55:42.216Z,62.78
2023-02-27T08:58:10.498Z,64.24
2023-02-27T09:00:37.308Z,63.78
2023-02-27T09:03:04.374Z,62.44
2023-02-27T09:05:35.422Z,63.55
2023-02-27T09:08:03.313Z,63.36
2023-02-27T09:10:32.192Z,61.66
2023-02-27T09:12:59.691Z,62.49
2023-02-27T09:15:26.756Z,62.79
2023-02-27T09:17:56.679Z,62.11
2023-02-27T09:20:23.806Z,61.71
2023-02-27T09:22:50.938Z,61.50
2023-02-27T09:25:18.061Z,60.82
2023-02-27T09:27:45.683Z,61.21
2023-02-27T09:30:13.038Z,60.05
2023-02-27T09:32:40.023Z,60.67
2023-02-27T09:35:07.466Z,60.53
2023-02-27T09:37:34.488Z,59.71
2023-02-27T09:40:01.940Z,60.14
2023-02-27T09:42:36.090Z,59.18
2023-02-27T09:45:06.228Z,60.52
2023-02-27T09:47:40.374Z,60.04
2023-02-27T09:50:12.064Z,57.53
2023-02-27T09:52:39.609Z,55.91
2023-02-27T09:55:12.517Z,55.69
2023-02-27T09:58:08.488Z,52.51
2023-02-27T10:00:49.160Z,52.40
2023-02-27T10:03:31.457Z,50.74
2023-02-27T10:06:06.250Z,51.11
2023-02-27T10:08:50.409Z,51.12
2023-02-27T10:11:24.076Z,51.56
2023-02-27T10:14:29.791Z,52.34
2023-02-27T10:16:58.139Z,51.22
2023-02-27T10:19:31.825Z,49.61
2023-02-27T10:22:00.422Z,51.95
2023-02-27T10:24:41.482Z,48.73
2023-02-27T10:27:14.692Z,49.29
2023-02-27T10:29:41.807Z,50.68
2023-02-27T10:32:25.775Z,47.40
2023-02-27T10:35:06.628Z,48.40
2023-02-27T10:37:34.416Z,48.23
2023-02-27T10:40:04.862Z,45.86
2023-02-27T10:42:35.705Z,45.92
2023-02-27T10:45:05.132Z,46.23
2023-02-27T10:47:32.765Z,46.30
2023-02-27T10:50:00.481Z,44.66
2023-02-27T10:52:27.535Z,47.29
2023-02-27T10:54:54.459Z,43.28
2023-02-27T10:57:41.307Z,43.86
2023-02-27T11:00:25.204Z,45.69
2023-02-27T11:02:52.719Z,44.63
2023-02-27T11:05:29.917Z,44.30
2023-02-27T11:07:59.888Z,42.14
2023-02-27T11:10:28.581Z,42.82
2023-02-27T11:13:05.606Z,43.57
2023-02-27T11:15:37.775Z,42.48
2023-02-27T11:18:31.401Z,42.17
2023-02-27T11:21:12.176Z,40.73
2023-02-27T11:23:52.134Z,41.96
2023-02-27T11:26:34.659Z,40.16
2023-02-27T11:29:15.356Z,40.53
2023-02-27T11:31:48.395Z,40.63
2023-02-27T11:34:21.943Z,40.59
2023-02-27T11:36:50.862Z,42.97
2023-02-27T11:39:35.719Z,42.13
2023-02-27T11:42:26.833Z,42.54
2023-02-27T11:44:57.616Z,41.53
2023-02-27T11:47:32.157Z,41.95
2023-02-27T11:50:09.156Z,41.48
2023-02-27T11:52:50.932Z,41.07
2023-02-27T11:55:21.942Z,41.76
2023-02-27T11:57:54.943Z,39.09
2023-02-27T12:00:59.113Z,42.10
2023-02-27T12:03:31.880Z,41.51
2023-02-27T12:06:00.159Z,40.69
2023-02-27T12:08:46.112Z,41.68
2023-02-27T12:11:45.484Z,41.32
2023-02-27T12:14:21.684Z,40.61
2023-02-27T12:16:54.652Z,41.05
2023-02-27T12:19:32.032Z,41.17
2023-02-27T12:22:15.802Z,42.50
2023-02-27T12:24:49.234Z,42.55
2023-02-27T12:27:38.453Z,42.18
2023-02-27T12:30:20.356Z,41.78
2023-02-27T12:32:54.224Z,43.81
2023-02-27T12:35:28.724Z,41.74
2023-02-27T12:37:56.386Z,42.34
2023-02-27T12:40:31.298Z,41.07
2023-02-27T12:43:23.593Z,43.00
2023-02-27T12:45:56.869Z,40.87
2023-02-27T12:48:36.966Z,40.78
2023-02-27T12:51:22.123Z,40.94
2023-02-27T12:54:23.960Z,41.90
2023-02-27T12:56:56.921Z,41.81
2023-02-27T12:59:45.691Z,41.76
2023-02-27T13:02:32.911Z,41.74
2023-02-27T13:05:16.454Z,41.79
2023-02-27T13:08:08.795Z,43.91
2023-02-27T13:11:06.306Z,43.54
2023-02-27T13:13:46.861Z,41.70
2023-02-27T13:16:30.921Z,45.13
2023-02-27T13:19:06.932Z,44.29
2023-02-27T13:21:38.742Z,44.60
2023-02-27T13:24:11.958Z,44.41
2023-02-27T13:26:43.132Z,45.38
2023-02-27T13:29:17.543Z,46.40
2023-02-27T13:32:02.067Z,45.01
2023-02-27T13:34:48.636Z,46.89
2023-02-27T13:37:15.776Z,47.13
2023-02-27T13:39:53.017Z,47.42
2023-02-27T13:42:26.303Z,49.15
2023-02-27T13:45:01.565Z,47.50
2023-02-27T13:47:31.958Z,47.39
2023-02-27T13:50:25.631Z,48.81
2023-02-27T13:52:52.962Z,48.86
2023-02-27T13:55:40.105Z,49.26
2023-02-27T13:58:17.046Z,49.82
2023-02-27T14:00:54.454Z,50.69
2023-02-27T14:03:25.920Z,50.74
2023-02-27T14:05:55.267Z,52.03
2023-02-27T14:08:46.463Z,52.33
2023-02-27T14:11:23.371Z,52.06
2023-02-27T14:13:50.286Z,52.04
2023-02-27T14:16:42.156Z,51.10
2023-02-27T14:19:26.216Z,50.95
2023-02-27T14:22:13.089Z,51.98
2023-02-27T14:25:00.972Z,52.73
2023-02-27T14:27:51.122Z,53.58
2023-02-27T14:30:37.034Z,52.46
2023-02-27T14:33:14.154Z,52.24
2023-02-27T14:35:46.001Z,51.40
2023-02-27T14:38:15.952Z,51.51
2023-02-27T14:41:23.378Z,51.99
2023-02-27T14:43:56.527Z,52.95
2023-02-27T14:46:29.011Z,52.23
2023-02-27T14:48:58.367Z,52.08
2023-02-27T14:51:25.730Z,52.69
2023-02-27T14:54:25.952Z,52.95
2023-02-27T14:57:07.140Z,53.00
2023-02-27T14:59:41.813Z,53.00
2023-02-27T15:02:28.638Z,53.00
2023-02-27T15:05:13.663Z,53.49
2023-02-27T15:07:40.743Z,53.54
2023-02-27T15:10:10.396Z,52.23
2023-02-27T15:12:38.334Z,52.27
2023-02-27T15:15:07.838Z,53.03
2023-02-27T15:17:40.449Z,53.20
2023-02-27T15:20:31.867Z,54.22
2023-02-27T15:23:22.883Z,52.15
2023-02-27T15:25:49.854Z,52.55
2023-02-27T15:28:22.776Z,52.71
2023-02-27T15:30:51.349Z,52.62
2023-02-27T15:33:18.933Z,52.55
2023-02-27T15:35:46.417Z,52.64
2023-02-27T15:38:42.300Z,52.87
2023-02-27T15:41:10.789Z,53.54
2023-02-27T15:43:37.507Z,53.59
2023-02-27T15:46:04.681Z,54.02
2023-02-27T15:48:32.541Z,53.80
2023-02-27T15:51:01.049Z,53.20
2023-02-27T15:53:30.308Z,53.98
2023-02-27T15:56:04.385Z,54.67
2023-02-27T15:58:34.278Z,54.29
2023-02-27T16:01:08.909Z,54.62
2023-02-27T16:03:55.966Z,54.06
2023-02-27T16:06:32.654Z,54.40
2023-02-27T16:09:03.631Z,53.86
2023-02-27T16:11:35.448Z,54.66
2023-02-27T16:14:02.430Z,54.72
2023-02-27T16:16:38.817Z,55.11
2023-02-27T16:19:29.571Z,55.59
2023-02-27T16:22:04.369Z,54.75
2023-02-27T16:24:34.675Z,54.56
2023-02-27T16:27:01.903Z,53.77
2023-02-27T16:29:35.457Z,53.68
2023-02-27T16:32:02.757Z,53.77
2023-02-27T16:34:44.545Z,54.40
2023-02-27T16:37:31.465Z,54.30
2023-02-27T16:39:58.333Z,54.20
2023-02-27T16:42:25.802Z,55.04
2023-02-27T16:44:53.483Z,54.93
2023-02-27T16:47:20.438Z,55.92
2023-02-27T16:49:47.734Z,55.62
2023-02-27T16:52:14.695Z,55.66
2023-02-27T16:54:41.369Z,56.27
2023-02-27T16:57:09.697Z,56.06
2023-02-27T16:59:39.967Z,56.32
2023-02-27T17:02:13.456Z,55.83
2023-02-27T17:04:44.250Z,55.67
2023-02-27T17:07:15.983Z,56.61
2023-02-27T17:09:47.201Z,56.47
2023-02-27T17:12:14.355Z,56.75
2023-02-27T17:14:41.217Z,55.73
2023-02-27T17:17:08.115Z,56.43
2023-02-27T17:19:35.183Z,55.63
2023-02-27T17:22:02.327Z,55.51
2023-02-27T17:24:29.860Z,56.81
2023-02-27T17:26:56.835Z,56.29
2023-02-27T17:29:24.388Z,56.84
2023-02-27T17:31:51.668Z,56.47
2023-02-27T17:34:18.801Z,56.13
2023-02-27T17:36:45.830Z,57.13
2023-02-27T17:39:14.390Z,57.10
2023-02-27T17:41:42.989Z,58.05
2023-02-27T17:44:11.668Z,58.10
2023-02-27T17:46:39.405Z,58.52
2023-02-27T17:49:06.629Z,58.84
2023-02-27T17:51:33.818Z,58.99
2023-02-27T17:54:02.219Z,58.70
2023-02-27T17:56:29.797Z,59.21
2023-02-27T17:58:58.095Z,59.04
2023-02-27T18:01:26.363Z,59.43
2023-02-27T18:03:54.916Z,59.48
2023-02-27T18:06:23.241Z,58.18
2023-02-27T18:08:50.428Z,58.70
2023-02-27T18:11:19.479Z,59.32
2023-02-27T18:13:47.177Z,59.95
2023-02-27T18:16:14.628Z,60.12
2023-02-27T18:18:42.793Z,60.28
2023-02-27T18:21:11.574Z,59.73
2023-02-27T18:23:38.978Z,61.02
2023-02-27T18:26:05.991Z,61.05
2023-02-27T18:28:33.035Z,61.93
2023-02-27T18:31:00.297Z,62.01
2023-02-27T18:33:27.592Z,63.08
2023-02-27T18:35:54.752Z,63.42
2023-02-27T18:38:21.523Z,62.68
2023-02-27T18:40:48.965Z,63.42
2023-02-27T18:43:16.251Z,63.48
2023-02-27T18:45:43.407Z,62.95
2023-02-27T18:48:10.409Z,63.98
2023-02-27T18:50:37.390Z,63.92
2023-02-27T18:53:05.224Z,64.19
2023-02-27T18:55:32.040Z,64.11
2023-02-27T18:57:59.216Z,64.99
2023-02-27T19:00:26.299Z,64.44
2023-02-27T19:02:53.415Z,65.08
2023-02-27T19:05:20.490Z,66.23
2023-02-27T19:07:47.387Z,65.87
2023-02-27T19:10:15.314Z,66.33
2023-02-27T19:12:42.807Z,66.24
2023-02-27T19:15:12.347Z,66.66
2023-02-27T19:17:39.818Z,66.85
2023-02-27T19:20:07.780Z,67.28
2023-02-27T19:22:34.925Z,67.02
2023-02-27T19:25:02.045Z,67.98
2023-02-27T19:27:29.065Z,68.27
2023-02-27T19:29:55.739Z,68.18
2023-02-27T19:32:23.070Z,68.95
2023-02-27T19:34:49.896Z,68.59
2023-02-27T19:37:17.698Z,68.65
2023-02-27T19:39:45.576Z,69.06
2023-02-27T19:42:13.204Z,69.50
2023-02-27T19:44:40.721Z,69.52
2023-02-27T19:47:08.178Z,69.66
2023-02-27T19:49:35.535Z,69.30
2023-02-27T19:52:03.181Z,69.69
2023-02-27T19:54:30.824Z,70.19
2023-02-27T19:56:57.968Z,70.34
2023-02-27T19:59:25.510Z,70.61
2023-02-27T20:01:53.584Z,70.96
2023-02-27T20:04:22.690Z,70.83
2023-02-27T20:06:53.325Z,70.99
2023-02-27T20:09:21.209Z,71.45
2023-02-27T20:11:52.711Z,70.70
2023-02-27T20:14:20.090Z,71.26
2023-02-27T20:16:47.325Z,71.82
2023-02-27T20:19:16.706Z,72.11
2023-02-27T20:21:44.636Z,72.19
2023-02-27T20:24:12.784Z,71.82
2023-02-27T20:26:42.644Z,72.42
2023-02-27T20:29:15.153Z,72.29
2023-02-27T20:31:45.849Z,72.69
2023-02-27T20:34:15.984Z,72.71
2023-02-27T20:36:43.875Z,72.51
2023-02-27T20:39:11.894Z,72.80
2023-02-27T20:41:40.375Z,72.87
2023-02-27T20:44:11.687Z,73.19
2023-02-27T20:46:41.086Z,73.40
2023-02-27T20:49:08.686Z,73.17
2023-02-27T20:51:37.756Z,73.83
2023-02-27T20:54:08.048Z,74.67
2023-02-27T20:56:38.645Z,74.23
2023-02-27T20:59:08.468Z,74.37
2023-02-27T21:01:38.278Z,74.21
2023-02-27T21:04:06.251Z,74.03
2023-02-27T21:06:35.057Z,74.36
2023-02-27T21:09:05.526Z,74.20
2023-02-27T21:11:33.435Z,74.46
2023-02-27T21:14:05.230Z,74.13
2023-02-27T21:16:32.815Z,73.96
2023-02-27T21:18:59.988Z,74.33
2023-02-27T21:21:30.542Z,73.79
2023-02-27T21:23:58.369Z,73.13
2023-02-27T21:26:28.684Z,73.56
2023-02-27T21:28:58.337Z,73.11
2023-02-27T21:31:27.781Z,72.53
2023-02-27T21:33:55.248Z,72.52
2023-02-27T21:36:26.861Z,72.46
2023-02-27T21:38:59.071Z,72.65
2023-02-27T21:41:27.211Z,71.93
2023-02-27T21:44:14.900Z,71.60
2023-02-27T21:46:42.126Z,71.79
2023-02-27T21:49:15.604Z,72.90
2023-02-27T21:51:43.272Z,73.33
2023-02-27T21:54:12.049Z,73.22
2023-02-27T21:56:42.003Z,72.81
2023-02-27T21:59:10.050Z,72.69
2023-02-27T22:01:37.649Z,73.16
2023-02-27T22:04:05.374Z,73.90
2023-02-27T22:06:34.203Z,74.04
2023-02-27T22:09:05.228Z,73.74
2023-02-27T22:11:33.362Z,74.53
2023-02-27T22:14:00.868Z,74.33
2023-02-27T22:16:28.417Z,74.47
2023-02-27T22:18:55.649Z,73.87
2023-02-27T22:21:25.467Z,73.85
2023-02-27T22:23:53.705Z,74.71
2023-02-27T22:26:24.472Z,74.56
2023-02-27T22:28:52.746Z,74.84
2023-02-27T22:31:23.927Z,75.05
2023-02-27T22:33:54.365Z,75.37
2023-02-27T22:36:27.008Z,75.28
2023-02-27T22:38:54.098Z,75.68
2023-02-27T22:41:33.728Z,75.71
2023-02-27T22:44:02.452Z,75.97
2023-02-27T22:46:32.302Z,75.82
2023-02-27T22:49:23.291Z,75.79
2023-02-27T22:51:52.241Z,75.51
2023-02-27T22:54:21.324Z,75.31
2023-02-27T22:56:50.461Z,76.85
2023-02-27T22:59:18.099Z,76.47
2023-02-27T23:01:45.127Z,76.89
2023-02-27T23:04:12.868Z,76.27
2023-02-27T23:06:40.928Z,76.21
2023-02-27T23:09:11.964Z,76.36
2023-02-27T23:11:39.303Z,75.85
2023-02-27T23:14:06.322Z,75.80
2023-02-27T23:16:33.564Z,75.55
2023-02-27T23:19:00.962Z,74.03
2023-02-27T23:21:36.849Z,74.38
2023-02-27T23:24:05.856Z,74.35
2023-02-27T23:26:36.005Z,74.12
2023-02-27T23:29:03.232Z,74.42
2023-02-27T23:31:32.212Z,74.28
2023-02-27T23:34:00.782Z,74.89
2023-02-27T23:36:27.754Z,74.71
2023-02-27T23:38:55.032Z,74.64
2023-02-27T23:41:22.174Z,74.66
2023-02-27T23:43:54.424Z,75.04
2023-02-27T23:46:21.801Z,75.55
2023-02-27T23:48:48.873Z,75.34
2023-02-27T23:51:16.124Z,75.17
2023-02-27T23:53:43.304Z,75.57
2023-02-27T23:56:15.577Z,74.91
2023-02-27T23:58:42.698Z,75.53
